sensor_id;sensor_type;location;lat;lon;timestamp;temperature;humidity
81895;DHT22;76753;45.642;13.758;2024-02-26T00:00:14;22.80;49.20
81895;DHT22;76753;45.642;13.758;2024-02-26T00:02:59;22.80;49.10
81895;DHT22;76753;45.642;13.758;2024-02-26T00:05:44;22.80;49.00
81895;DHT22;76753;45.642;13.758;2024-02-26T00:08:29;22.90;49.00
81895;DHT22;76753;45.642;13.758;2024-02-26T00:11:13;22.90;49.00
81895;DHT22;76753;45.642;13.758;2024-02-26T00:13:58;22.80;48.90
81895;DHT22;76753;45.642;13.758;2024-02-26T00:16:42;22.90;48.90
81895;DHT22;76753;45.642;13.758;2024-02-26T00:19:29;22.80;48.70
81895;DHT22;76753;45.642;13.758;2024-02-26T00:22:14;22.80;48.70
81895;DHT22;76753;45.642;13.758;2024-02-26T00:24:58;22.80;48.70
81895;DHT22;76753;45.642;13.758;2024-02-26T00:27:43;22.80;48.70
81895;DHT22;76753;45.642;13.758;2024-02-26T00:30:28;22.80;48.70
81895;DHT22;76753;45.642;13.758;2024-02-26T00:33:16;22.80;48.70
81895;DHT22;76753;45.642;13.758;2024-02-26T00:36:01;22.80;48.70
81895;DHT22;76753;45.642;13.758;2024-02-26T00:38:46;22.80;48.70
81895;DHT22;76753;45.642;13.758;2024-02-26T00:41:38;22.80;48.70
81895;DHT22;76753;45.642;13.758;2024-02-26T00:44:23;22.80;48.70
81895;DHT22;76753;45.642;13.758;2024-02-26T00:47:07;22.80;48.60
81895;DHT22;76753;45.642;13.758;2024-02-26T00:49:52;22.80;48.60
81895;DHT22;76753;45.642;13.758;2024-02-26T00:52:36;22.80;48.50
81895;DHT22;76753;45.642;13.758;2024-02-26T00:55:21;22.80;48.50
81895;DHT22;76753;45.642;13.758;2024-02-26T00:58:06;22.80;48.40
81895;DHT22;76753;45.642;13.758;2024-02-26T01:00:50;22.80;48.40
81895;DHT22;76753;45.642;13.758;2024-02-26T01:03:35;22.80;48.40
81895;DHT22;76753;45.642;13.758;2024-02-26T01:06:20;22.80;48.40
81895;DHT22;76753;45.642;13.758;2024-02-26T01:09:06;22.80;48.40
81895;DHT22;76753;45.642;13.758;2024-02-26T01:11:50;22.70;48.30
81895;DHT22;76753;45.642;13.758;2024-02-26T01:14:35;22.80;48.30
81895;DHT22;76753;45.642;13.758;2024-02-26T01:17:20;22.70;48.30
81895;DHT22;76753;45.642;13.758;2024-02-26T01:20:05;22.70;48.20
81895;DHT22;76753;45.642;13.758;2024-02-26T01:22:49;22.70;48.20
81895;DHT22;76753;45.642;13.758;2024-02-26T01:25:34;22.70;48.20
81895;DHT22;76753;45.642;13.758;2024-02-26T01:28:19;22.70;48.20
81895;DHT22;76753;45.642;13.758;2024-02-26T01:31:03;22.70;48.20
81895;DHT22;76753;45.642;13.758;2024-02-26T01:33:50;22.70;48.10
81895;DHT22;76753;45.642;13.758;2024-02-26T01:36:34;22.70;48.10
81895;DHT22;76753;45.642;13.758;2024-02-26T01:39:19;22.70;48.10
81895;DHT22;76753;45.642;13.758;2024-02-26T01:42:04;22.70;48.10
81895;DHT22;76753;45.642;13.758;2024-02-26T01:44:48;22.70;48.10
81895;DHT22;76753;45.642;13.758;2024-02-26T01:47:33;22.70;48.10
81895;DHT22;76753;45.642;13.758;2024-02-26T01:50:18;22.70;48.10
81895;DHT22;76753;45.642;13.758;2024-02-26T01:53:03;22.70;48.10
81895;DHT22;76753;45.642;13.758;2024-02-26T01:55:47;22.70;48.10
81895;DHT22;76753;45.642;13.758;2024-02-26T01:58:32;22.70;48.70
81895;DHT22;76753;45.642;13.758;2024-02-26T02:01:19;22.70;48.00
81895;DHT22;76753;45.642;13.758;2024-02-26T02:04:05;22.70;48.00
81895;DHT22;76753;45.642;13.758;2024-02-26T02:06:50;22.70;48.00
81895;DHT22;76753;45.642;13.758;2024-02-26T02:09:36;22.70;48.00
81895;DHT22;76753;45.642;13.758;2024-02-26T02:12:21;22.70;48.10
81895;DHT22;76753;45.642;13.758;2024-02-26T02:15:07;22.70;48.10
81895;DHT22;76753;45.642;13.758;2024-02-26T02:17:51;22.60;48.10
81895;DHT22;76753;45.642;13.758;2024-02-26T02:20:36;22.70;48.10
81895;DHT22;76753;45.642;13.758;2024-02-26T02:23:20;22.60;48.00
81895;DHT22;76753;45.642;13.758;2024-02-26T02:26:05;22.60;48.00
81895;DHT22;76753;45.642;13.758;2024-02-26T02:28:50;22.60;48.00
81895;DHT22;76753;45.642;13.758;2024-02-26T02:31:34;22.60;48.00
81895;DHT22;76753;45.642;13.758;2024-02-26T02:34:19;22.60;48.00
81895;DHT22;76753;45.642;13.758;2024-02-26T02:37:03;22.60;48.00
81895;DHT22;76753;45.642;13.758;2024-02-26T02:39:48;22.60;48.00
81895;DHT22;76753;45.642;13.758;2024-02-26T02:42:33;22.60;48.10
81895;DHT22;76753;45.642;13.758;2024-02-26T02:45:17;22.60;48.10
81895;DHT22;76753;45.642;13.758;2024-02-26T02:48:02;22.60;48.10
81895;DHT22;76753;45.642;13.758;2024-02-26T02:50:46;22.60;48.00
81895;DHT22;76753;45.642;13.758;2024-02-26T02:53:31;22.60;48.00
81895;DHT22;76753;45.642;13.758;2024-02-26T02:56:15;22.60;48.00
81895;DHT22;76753;45.642;13.758;2024-02-26T02:59:00;22.60;48.00
81895;DHT22;76753;45.642;13.758;2024-02-26T03:01:44;22.60;48.00
81895;DHT22;76753;45.642;13.758;2024-02-26T03:04:29;22.60;48.00
81895;DHT22;76753;45.642;13.758;2024-02-26T03:07:13;22.60;48.00
81895;DHT22;76753;45.642;13.758;2024-02-26T03:09:58;22.60;47.90
81895;DHT22;76753;45.642;13.758;2024-02-26T03:12:43;22.60;48.00
81895;DHT22;76753;45.642;13.758;2024-02-26T03:15:27;22.60;48.00
81895;DHT22;76753;45.642;13.758;2024-02-26T03:18:12;22.60;48.00
81895;DHT22;76753;45.642;13.758;2024-02-26T03:20:56;22.60;47.90
81895;DHT22;76753;45.642;13.758;2024-02-26T03:23:41;22.60;48.00
81895;DHT22;76753;45.642;13.758;2024-02-26T03:26:25;22.60;48.00
81895;DHT22;76753;45.642;13.758;2024-02-26T03:29:10;22.60;48.00
81895;DHT22;76753;45.642;13.758;2024-02-26T03:31:55;22.60;48.00
81895;DHT22;76753;45.642;13.758;2024-02-26T03:34:40;22.60;48.00
81895;DHT22;76753;45.642;13.758;2024-02-26T03:37:24;22.60;48.00
81895;DHT22;76753;45.642;13.758;2024-02-26T03:40:09;22.60;48.00
81895;DHT22;76753;45.642;13.758;2024-02-26T03:42:54;22.50;47.90
81895;DHT22;76753;45.642;13.758;2024-02-26T03:45:38;22.50;48.00
81895;DHT22;76753;45.642;13.758;2024-02-26T03:48:23;22.50;48.00
81895;DHT22;76753;45.642;13.758;2024-02-26T03:51:09;22.50;48.00
81895;DHT22;76753;45.642;13.758;2024-02-26T03:53:54;22.50;48.00
81895;DHT22;76753;45.642;13.758;2024-02-26T03:56:39;22.50;47.90
81895;DHT22;76753;45.642;13.758;2024-02-26T03:59:23;22.50;47.90
81895;DHT22;76753;45.642;13.758;2024-02-26T04:02:08;22.50;47.90
81895;DHT22;76753;45.642;13.758;2024-02-26T04:04:54;22.50;47.90
81895;DHT22;76753;45.642;13.758;2024-02-26T04:07:39;22.50;47.80
81895;DHT22;76753;45.642;13.758;2024-02-26T04:10:23;22.50;48.50
81895;DHT22;76753;45.642;13.758;2024-02-26T04:13:08;22.50;48.40
81895;DHT22;76753;45.642;13.758;2024-02-26T04:15:52;22.50;47.80
81895;DHT22;76753;45.642;13.758;2024-02-26T04:18:37;22.50;47.70
81895;DHT22;76753;45.642;13.758;2024-02-26T04:21:22;22.50;47.70
81895;DHT22;76753;45.642;13.758;2024-02-26T04:24:07;22.50;47.70
81895;DHT22;76753;45.642;13.758;2024-02-26T04:26:51;22.50;47.70
81895;DHT22;76753;45.642;13.758;2024-02-26T04:29:36;22.50;47.60
81895;DHT22;76753;45.642;13.758;2024-02-26T04:32:20;22.50;47.60
81895;DHT22;76753;45.642;13.758;2024-02-26T04:35:05;22.50;47.60
81895;DHT22;76753;45.642;13.758;2024-02-26T04:37:49;22.50;47.70
81895;DHT22;76753;45.642;13.758;2024-02-26T04:40:34;22.50;47.60
81895;DHT22;76753;45.642;13.758;2024-02-26T04:43:19;22.50;47.60
81895;DHT22;76753;45.642;13.758;2024-02-26T04:46:03;22.50;47.60
81895;DHT22;76753;45.642;13.758;2024-02-26T04:48:48;22.50;47.60
81895;DHT22;76753;45.642;13.758;2024-02-26T04:51:32;22.50;47.60
81895;DHT22;76753;45.642;13.758;2024-02-26T04:54:17;22.50;47.60
81895;DHT22;76753;45.642;13.758;2024-02-26T04:57:02;22.40;47.60
81895;DHT22;76753;45.642;13.758;2024-02-26T04:59:46;22.40;47.50
81895;DHT22;76753;45.642;13.758;2024-02-26T05:02:31;22.40;47.50
81895;DHT22;76753;45.642;13.758;2024-02-26T05:05:17;22.40;47.50
81895;DHT22;76753;45.642;13.758;2024-02-26T05:08:02;22.40;47.50
81895;DHT22;76753;45.642;13.758;2024-02-26T05:10:47;22.40;47.50
81895;DHT22;76753;45.642;13.758;2024-02-26T05:13:32;22.40;47.50
81895;DHT22;76753;45.642;13.758;2024-02-26T05:16:17;22.40;47.60
81895;DHT22;76753;45.642;13.758;2024-02-26T05:19:02;22.40;47.50
81895;DHT22;76753;45.642;13.758;2024-02-26T05:21:47;22.40;47.50
81895;DHT22;76753;45.642;13.758;2024-02-26T05:24:33;22.40;47.50
81895;DHT22;76753;45.642;13.758;2024-02-26T05:27:17;22.40;47.50
81895;DHT22;76753;45.642;13.758;2024-02-26T05:30:02;22.40;47.50
81895;DHT22;76753;45.642;13.758;2024-02-26T05:32:47;22.40;47.50
81895;DHT22;76753;45.642;13.758;2024-02-26T05:35:32;22.40;47.50
81895;DHT22;76753;45.642;13.758;2024-02-26T05:38:16;22.40;47.50
81895;DHT22;76753;45.642;13.758;2024-02-26T05:41:01;22.40;47.40
81895;DHT22;76753;45.642;13.758;2024-02-26T05:43:45;22.40;47.40
81895;DHT22;76753;45.642;13.758;2024-02-26T05:46:30;22.40;47.40
81895;DHT22;76753;45.642;13.758;2024-02-26T05:49:15;22.40;47.30
81895;DHT22;76753;45.642;13.758;2024-02-26T05:51:59;22.40;47.30
81895;DHT22;76753;45.642;13.758;2024-02-26T05:54:44;22.40;47.20
81895;DHT22;76753;45.642;13.758;2024-02-26T05:57:28;22.40;47.20
81895;DHT22;76753;45.642;13.758;2024-02-26T06:00:13;22.30;47.10
81895;DHT22;76753;45.642;13.758;2024-02-26T06:02:58;22.30;47.10
81895;DHT22;76753;45.642;13.758;2024-02-26T06:05:43;22.30;47.10
81895;DHT22;76753;45.642;13.758;2024-02-26T06:08:27;22.30;47.10
81895;DHT22;76753;45.642;13.758;2024-02-26T06:11:12;22.30;47.10
81895;DHT22;76753;45.642;13.758;2024-02-26T06:13:57;22.30;47.00
81895;DHT22;76753;45.642;13.758;2024-02-26T06:16:42;22.30;47.00
81895;DHT22;76753;45.642;13.758;2024-02-26T06:19:27;22.30;47.00
81895;DHT22;76753;45.642;13.758;2024-02-26T06:22:11;22.30;47.00
81895;DHT22;76753;45.642;13.758;2024-02-26T06:24:56;22.30;47.00
81895;DHT22;76753;45.642;13.758;2024-02-26T06:27:40;22.30;47.00
81895;DHT22;76753;45.642;13.758;2024-02-26T06:30:25;22.30;47.00
81895;DHT22;76753;45.642;13.758;2024-02-26T06:33:10;22.30;47.10
81895;DHT22;76753;45.642;13.758;2024-02-26T06:35:55;22.30;47.00
81895;DHT22;76753;45.642;13.758;2024-02-26T06:38:39;22.30;47.00
81895;DHT22;76753;45.642;13.758;2024-02-26T06:41:24;22.30;47.10
81895;DHT22;76753;45.642;13.758;2024-02-26T06:44:13;22.30;47.10
81895;DHT22;76753;45.642;13.758;2024-02-26T06:47:01;22.30;47.10
81895;DHT22;76753;45.642;13.758;2024-02-26T06:49:45;22.30;47.10
81895;DHT22;76753;45.642;13.758;2024-02-26T06:52:30;22.30;47.10
81895;DHT22;76753;45.642;13.758;2024-02-26T06:55:15;22.30;47.10
81895;DHT22;76753;45.642;13.758;2024-02-26T06:57:59;22.30;47.10
81895;DHT22;76753;45.642;13.758;2024-02-26T07:00:44;22.30;47.10
81895;DHT22;76753;45.642;13.758;2024-02-26T07:03:28;22.20;47.10
81895;DHT22;76753;45.642;13.758;2024-02-26T07:06:14;22.20;47.00
81895;DHT22;76753;45.642;13.758;2024-02-26T07:08:58;22.20;47.10
81895;DHT22;76753;45.642;13.758;2024-02-26T07:11:43;22.20;47.10
81895;DHT22;76753;45.642;13.758;2024-02-26T07:14:28;22.20;47.10
81895;DHT22;76753;45.642;13.758;2024-02-26T07:17:12;22.20;47.10
81895;DHT22;76753;45.642;13.758;2024-02-26T07:19:56;22.30;47.90
81895;DHT22;76753;45.642;13.758;2024-02-26T07:22:41;22.20;47.20
81895;DHT22;76753;45.642;13.758;2024-02-26T07:25:28;22.20;47.20
81895;DHT22;76753;45.642;13.758;2024-02-26T07:28:13;22.20;47.30
81895;DHT22;76753;45.642;13.758;2024-02-26T07:30:57;22.20;47.30
81895;DHT22;76753;45.642;13.758;2024-02-26T07:33:42;22.20;47.40
81895;DHT22;76753;45.642;13.758;2024-02-26T07:36:26;22.20;47.40
81895;DHT22;76753;45.642;13.758;2024-02-26T07:39:11;22.20;47.30
81895;DHT22;76753;45.642;13.758;2024-02-26T07:41:56;22.20;47.30
81895;DHT22;76753;45.642;13.758;2024-02-26T07:44:40;22.20;47.20
81895;DHT22;76753;45.642;13.758;2024-02-26T07:47:27;22.20;47.20
81895;DHT22;76753;45.642;13.758;2024-02-26T07:50:11;22.20;47.10
81895;DHT22;76753;45.642;13.758;2024-02-26T07:52:56;22.20;47.10
81895;DHT22;76753;45.642;13.758;2024-02-26T07:55:41;22.20;47.10
81895;DHT22;76753;45.642;13.758;2024-02-26T07:58:25;22.20;47.10
81895;DHT22;76753;45.642;13.758;2024-02-26T08:01:13;22.20;47.10
81895;DHT22;76753;45.642;13.758;2024-02-26T08:03:58;22.20;47.10
81895;DHT22;76753;45.642;13.758;2024-02-26T08:06:43;22.20;47.10
81895;DHT22;76753;45.642;13.758;2024-02-26T08:09:28;22.20;47.10
81895;DHT22;76753;45.642;13.758;2024-02-26T08:12:12;22.20;47.10
81895;DHT22;76753;45.642;13.758;2024-02-26T08:14:57;22.20;47.10
81895;DHT22;76753;45.642;13.758;2024-02-26T08:17:42;22.20;47.10
81895;DHT22;76753;45.642;13.758;2024-02-26T08:20:27;22.20;47.10
81895;DHT22;76753;45.642;13.758;2024-02-26T08:23:12;22.10;47.10
81895;DHT22;76753;45.642;13.758;2024-02-26T08:25:56;22.20;47.20
81895;DHT22;76753;45.642;13.758;2024-02-26T08:28:41;22.10;47.60
81895;DHT22;76753;45.642;13.758;2024-02-26T08:31:25;22.20;48.30
81895;DHT22;76753;45.642;13.758;2024-02-26T08:34:11;22.20;48.60
81895;DHT22;76753;45.642;13.758;2024-02-26T08:36:56;22.20;48.60
81895;DHT22;76753;45.642;13.758;2024-02-26T08:39:40;22.10;48.90
81895;DHT22;76753;45.642;13.758;2024-02-26T08:42:25;22.10;49.00
81895;DHT22;76753;45.642;13.758;2024-02-26T08:45:09;22.10;49.00
81895;DHT22;76753;45.642;13.758;2024-02-26T08:47:54;22.10;48.90
81895;DHT22;76753;45.642;13.758;2024-02-26T08:50:38;22.10;48.80
81895;DHT22;76753;45.642;13.758;2024-02-26T08:53:23;22.10;48.60
81895;DHT22;76753;45.642;13.758;2024-02-26T08:56:08;22.10;48.40
81895;DHT22;76753;45.642;13.758;2024-02-26T08:58:52;22.10;48.10
81895;DHT22;76753;45.642;13.758;2024-02-26T09:01:38;22.10;47.60
81895;DHT22;76753;45.642;13.758;2024-02-26T09:04:23;22.00;47.30
81895;DHT22;76753;45.642;13.758;2024-02-26T09:07:08;22.10;47.00
81895;DHT22;76753;45.642;13.758;2024-02-26T09:09:52;22.00;46.80
81895;DHT22;76753;45.642;13.758;2024-02-26T09:12:37;22.00;46.60
81895;DHT22;76753;45.642;13.758;2024-02-26T09:15:22;22.00;46.40
81895;DHT22;76753;45.642;13.758;2024-02-26T09:18:06;22.00;46.20
81895;DHT22;76753;45.642;13.758;2024-02-26T09:20:51;22.00;46.10
81895;DHT22;76753;45.642;13.758;2024-02-26T09:23:36;21.90;45.40
81895;DHT22;76753;45.642;13.758;2024-02-26T09:26:21;21.80;43.80
81895;DHT22;76753;45.642;13.758;2024-02-26T09:29:05;21.80;43.20
81895;DHT22;76753;45.642;13.758;2024-02-26T09:31:50;21.60;42.90
81895;DHT22;76753;45.642;13.758;2024-02-26T09:34:34;21.50;42.80
81895;DHT22;76753;45.642;13.758;2024-02-26T09:37:19;21.40;43.00
81895;DHT22;76753;45.642;13.758;2024-02-26T09:40:04;21.40;43.10
81895;DHT22;76753;45.642;13.758;2024-02-26T09:42:55;21.30;43.20
81895;DHT22;76753;45.642;13.758;2024-02-26T09:45:43;21.30;43.20
81895;DHT22;76753;45.642;13.758;2024-02-26T09:48:29;21.20;43.00
81895;DHT22;76753;45.642;13.758;2024-02-26T09:51:14;21.10;42.80
81895;DHT22;76753;45.642;13.758;2024-02-26T09:53:59;21.10;42.80
81895;DHT22;76753;45.642;13.758;2024-02-26T09:56:47;21.00;42.80
81895;DHT22;76753;45.642;13.758;2024-02-26T09:59:39;20.90;42.80
81895;DHT22;76753;45.642;13.758;2024-02-26T10:02:27;20.80;42.40
81895;DHT22;76753;45.642;13.758;2024-02-26T10:05:16;20.60;42.50
81895;DHT22;76753;45.642;13.758;2024-02-26T10:08:01;20.50;42.70
81895;DHT22;76753;45.642;13.758;2024-02-26T10:10:45;20.40;42.80
81895;DHT22;76753;45.642;13.758;2024-02-26T10:13:30;20.40;42.80
81895;DHT22;76753;45.642;13.758;2024-02-26T10:16:15;20.30;43.00
81895;DHT22;76753;45.642;13.758;2024-02-26T10:19:00;20.40;43.20
81895;DHT22;76753;45.642;13.758;2024-02-26T10:21:45;20.30;43.30
81895;DHT22;76753;45.642;13.758;2024-02-26T10:24:30;20.30;43.40
81895;DHT22;76753;45.642;13.758;2024-02-26T10:27:15;20.30;43.60
81895;DHT22;76753;45.642;13.758;2024-02-26T10:30:18;20.40;43.80
81895;DHT22;76753;45.642;13.758;2024-02-26T10:33:03;20.40;43.80
81895;DHT22;76753;45.642;13.758;2024-02-26T10:35:48;20.30;43.50
81895;DHT22;76753;45.642;13.758;2024-02-26T10:38:32;20.20;43.40
81895;DHT22;76753;45.642;13.758;2024-02-26T10:41:17;20.20;43.60
81895;DHT22;76753;45.642;13.758;2024-02-26T10:44:02;20.20;44.00
81895;DHT22;76753;45.642;13.758;2024-02-26T10:46:47;20.30;44.60
81895;DHT22;76753;45.642;13.758;2024-02-26T10:49:35;20.40;45.00
81895;DHT22;76753;45.642;13.758;2024-02-26T10:52:20;20.50;45.30
81895;DHT22;76753;45.642;13.758;2024-02-26T10:55:06;20.50;46.10
81895;DHT22;76753;45.642;13.758;2024-02-26T10:57:52;20.60;45.30
81895;DHT22;76753;45.642;13.758;2024-02-26T11:00:38;20.60;45.30
81895;DHT22;76753;45.642;13.758;2024-02-26T11:03:24;20.60;45.30
81895;DHT22;76753;45.642;13.758;2024-02-26T11:06:09;20.70;45.50
81895;DHT22;76753;45.642;13.758;2024-02-26T11:08:55;20.70;45.50
81895;DHT22;76753;45.642;13.758;2024-02-26T11:11:40;20.70;45.60
81895;DHT22;76753;45.642;13.758;2024-02-26T11:14:26;20.70;45.60
81895;DHT22;76753;45.642;13.758;2024-02-26T11:17:11;20.80;45.80
81895;DHT22;76753;45.642;13.758;2024-02-26T11:19:58;20.80;45.80
81895;DHT22;76753;45.642;13.758;2024-02-26T11:22:42;20.80;45.90
81895;DHT22;76753;45.642;13.758;2024-02-26T11:25:27;20.80;45.80
81895;DHT22;76753;45.642;13.758;2024-02-26T11:28:14;20.80;45.90
81895;DHT22;76753;45.642;13.758;2024-02-26T11:31:01;20.80;46.00
81895;DHT22;76753;45.642;13.758;2024-02-26T11:33:46;20.70;45.90
81895;DHT22;76753;45.642;13.758;2024-02-26T11:36:31;20.60;45.90
81895;DHT22;76753;45.642;13.758;2024-02-26T11:39:16;20.60;46.00
81895;DHT22;76753;45.642;13.758;2024-02-26T11:42:14;20.50;45.90
81895;DHT22;76753;45.642;13.758;2024-02-26T11:44:58;20.50;46.00
81895;DHT22;76753;45.642;13.758;2024-02-26T11:47:56;20.40;46.00
81895;DHT22;76753;45.642;13.758;2024-02-26T11:50:42;20.40;46.30
81895;DHT22;76753;45.642;13.758;2024-02-26T11:53:35;20.30;46.50
81895;DHT22;76753;45.642;13.758;2024-02-26T11:56:30;20.20;46.50
81895;DHT22;76753;45.642;13.758;2024-02-26T11:59:38;20.20;46.50
81895;DHT22;76753;45.642;13.758;2024-02-26T12:02:46;20.10;46.50
81895;DHT22;76753;45.642;13.758;2024-02-26T12:05:32;20.10;46.50
81895;DHT22;76753;45.642;13.758;2024-02-26T12:08:17;20.10;47.10
81895;DHT22;76753;45.642;13.758;2024-02-26T12:11:04;20.10;46.30
81895;DHT22;76753;45.642;13.758;2024-02-26T12:13:48;20.10;45.80
81895;DHT22;76753;45.642;13.758;2024-02-26T12:16:39;20.00;45.50
81895;DHT22;76753;45.642;13.758;2024-02-26T12:19:25;20.00;45.20
81895;DHT22;76753;45.642;13.758;2024-02-26T12:22:13;20.10;44.80
81895;DHT22;76753;45.642;13.758;2024-02-26T12:24:59;20.10;45.10
81895;DHT22;76753;45.642;13.758;2024-02-26T12:27:45;20.10;45.20
81895;DHT22;76753;45.642;13.758;2024-02-26T12:30:30;20.20;45.70
81895;DHT22;76753;45.642;13.758;2024-02-26T12:33:18;20.20;46.10
81895;DHT22;76753;45.642;13.758;2024-02-26T12:36:03;20.30;46.30
81895;DHT22;76753;45.642;13.758;2024-02-26T12:38:51;20.40;46.40
81895;DHT22;76753;45.642;13.758;2024-02-26T12:41:37;20.40;46.60
81895;DHT22;76753;45.642;13.758;2024-02-26T12:44:25;20.50;46.80
81895;DHT22;76753;45.642;13.758;2024-02-26T12:47:10;20.50;46.70
81895;DHT22;76753;45.642;13.758;2024-02-26T12:49:57;20.60;46.80
81895;DHT22;76753;45.642;13.758;2024-02-26T12:52:44;20.60;46.70
81895;DHT22;76753;45.642;13.758;2024-02-26T12:55:29;20.70;46.80
81895;DHT22;76753;45.642;13.758;2024-02-26T12:58:15;20.60;46.80
81895;DHT22;76753;45.642;13.758;2024-02-26T13:01:01;20.70;46.90
81895;DHT22;76753;45.642;13.758;2024-02-26T13:03:46;20.70;46.90
81895;DHT22;76753;45.642;13.758;2024-02-26T13:06:32;20.70;47.00
81895;DHT22;76753;45.642;13.758;2024-02-26T13:09:16;20.70;47.00
81895;DHT22;76753;45.642;13.758;2024-02-26T13:12:07;20.80;47.10
81895;DHT22;76753;45.642;13.758;2024-02-26T13:15:02;20.80;47.20
81895;DHT22;76753;45.642;13.758;2024-02-26T13:17:48;20.80;47.30
81895;DHT22;76753;45.642;13.758;2024-02-26T13:20:32;20.80;47.40
81895;DHT22;76753;45.642;13.758;2024-02-26T13:23:18;20.80;47.50
81895;DHT22;76753;45.642;13.758;2024-02-26T13:26:04;20.80;47.60
81895;DHT22;76753;45.642;13.758;2024-02-26T13:28:59;20.90;47.80
81895;DHT22;76753;45.642;13.758;2024-02-26T13:31:44;20.90;48.00
81895;DHT22;76753;45.642;13.758;2024-02-26T13:34:29;20.90;48.00
81895;DHT22;76753;45.642;13.758;2024-02-26T13:37:14;20.90;48.20
81895;DHT22;76753;45.642;13.758;2024-02-26T13:39:59;20.90;48.40
81895;DHT22;76753;45.642;13.758;2024-02-26T13:42:43;21.00;48.70
81895;DHT22;76753;45.642;13.758;2024-02-26T13:45:28;21.00;49.10
81895;DHT22;76753;45.642;13.758;2024-02-26T13:48:22;21.00;49.30
81895;DHT22;76753;45.642;13.758;2024-02-26T13:51:07;21.00;49.50
81895;DHT22;76753;45.642;13.758;2024-02-26T13:53:51;21.00;49.80
81895;DHT22;76753;45.642;13.758;2024-02-26T13:56:36;21.10;50.20
81895;DHT22;76753;45.642;13.758;2024-02-26T13:59:20;21.10;50.40
81895;DHT22;76753;45.642;13.758;2024-02-26T14:02:05;21.10;50.60
81895;DHT22;76753;45.642;13.758;2024-02-26T14:04:50;21.10;50.70
81895;DHT22;76753;45.642;13.758;2024-02-26T14:07:34;21.10;50.70
81895;DHT22;76753;45.642;13.758;2024-02-26T14:10:19;21.20;50.80
81895;DHT22;76753;45.642;13.758;2024-02-26T14:13:04;21.20;50.80
81895;DHT22;76753;45.642;13.758;2024-02-26T14:15:49;21.20;50.90
81895;DHT22;76753;45.642;13.758;2024-02-26T14:18:33;21.30;50.90
81895;DHT22;76753;45.642;13.758;2024-02-26T14:21:18;21.30;50.90
81895;DHT22;76753;45.642;13.758;2024-02-26T14:24:03;21.30;50.90
81895;DHT22;76753;45.642;13.758;2024-02-26T14:26:48;21.30;50.80
81895;DHT22;76753;45.642;13.758;2024-02-26T14:29:32;21.40;50.90
81895;DHT22;76753;45.642;13.758;2024-02-26T14:32:17;21.40;50.90
81895;DHT22;76753;45.642;13.758;2024-02-26T14:35:02;21.40;50.90
81895;DHT22;76753;45.642;13.758;2024-02-26T14:37:47;21.50;50.90
81895;DHT22;76753;45.642;13.758;2024-02-26T14:40:33;21.40;50.90
81895;DHT22;76753;45.642;13.758;2024-02-26T14:43:17;21.50;51.00
81895;DHT22;76753;45.642;13.758;2024-02-26T14:46:02;21.50;51.00
81895;DHT22;76753;45.642;13.758;2024-02-26T14:48:47;21.60;51.10
81895;DHT22;76753;45.642;13.758;2024-02-26T14:51:31;21.50;51.00
81895;DHT22;76753;45.642;13.758;2024-02-26T14:54:16;21.60;51.00
81895;DHT22;76753;45.642;13.758;2024-02-26T14:57:01;21.60;50.90
81895;DHT22;76753;45.642;13.758;2024-02-26T14:59:45;21.60;50.90
81895;DHT22;76753;45.642;13.758;2024-02-26T15:02:30;21.60;50.80
81895;DHT22;76753;45.642;13.758;2024-02-26T15:05:14;21.70;50.80
81895;DHT22;76753;45.642;13.758;2024-02-26T15:08:01;21.60;50.70
81895;DHT22;76753;45.642;13.758;2024-02-26T15:10:46;21.60;50.50
81895;DHT22;76753;45.642;13.758;2024-02-26T15:13:34;21.60;50.50
81895;DHT22;76753;45.642;13.758;2024-02-26T15:16:20;21.70;50.40
81895;DHT22;76753;45.642;13.758;2024-02-26T15:19:05;21.70;50.40
81895;DHT22;76753;45.642;13.758;2024-02-26T15:21:51;21.80;50.30
81895;DHT22;76753;45.642;13.758;2024-02-26T15:24:35;21.80;50.30
81895;DHT22;76753;45.642;13.758;2024-02-26T15:27:20;21.80;50.20
81895;DHT22;76753;45.642;13.758;2024-02-26T15:30:05;21.70;50.10
81895;DHT22;76753;45.642;13.758;2024-02-26T15:32:50;21.80;50.10
81895;DHT22;76753;45.642;13.758;2024-02-26T15:35:34;21.80;50.10
81895;DHT22;76753;45.642;13.758;2024-02-26T15:38:20;21.80;50.00
81895;DHT22;76753;45.642;13.758;2024-02-26T15:41:11;21.80;50.00
81895;DHT22;76753;45.642;13.758;2024-02-26T15:43:56;21.80;49.90
81895;DHT22;76753;45.642;13.758;2024-02-26T15:46:41;21.90;50.00
81895;DHT22;76753;45.642;13.758;2024-02-26T15:49:26;21.90;50.00
81895;DHT22;76753;45.642;13.758;2024-02-26T15:52:10;21.90;50.00
81895;DHT22;76753;45.642;13.758;2024-02-26T15:54:55;21.90;49.90
81895;DHT22;76753;45.642;13.758;2024-02-26T15:57:41;21.90;49.90
81895;DHT22;76753;45.642;13.758;2024-02-26T16:00:25;21.90;49.80
81895;DHT22;76753;45.642;13.758;2024-02-26T16:03:11;21.90;49.80
81895;DHT22;76753;45.642;13.758;2024-02-26T16:05:56;21.90;49.70
81895;DHT22;76753;45.642;13.758;2024-02-26T16:08:40;21.90;49.70
81895;DHT22;76753;45.642;13.758;2024-02-26T16:11:26;21.90;49.70
81895;DHT22;76753;45.642;13.758;2024-02-26T16:19:54;22.00;49.70
81895;DHT22;76753;45.642;13.758;2024-02-26T16:22:39;22.00;49.70
81895;DHT22;76753;45.642;13.758;2024-02-26T16:25:25;22.00;49.70
81895;DHT22;76753;45.642;13.758;2024-02-26T16:28:11;22.00;49.70
81895;DHT22;76753;45.642;13.758;2024-02-26T16:30:55;22.00;49.70
81895;DHT22;76753;45.642;13.758;2024-02-26T16:33:40;22.00;49.70
81895;DHT22;76753;45.642;13.758;2024-02-26T16:36:24;22.00;49.70
81895;DHT22;76753;45.642;13.758;2024-02-26T16:39:09;22.00;49.70
81895;DHT22;76753;45.642;13.758;2024-02-26T16:41:54;22.00;49.70
81895;DHT22;76753;45.642;13.758;2024-02-26T16:44:38;22.00;49.70
81895;DHT22;76753;45.642;13.758;2024-02-26T16:47:23;22.00;49.70
81895;DHT22;76753;45.642;13.758;2024-02-26T16:50:09;22.00;49.70
81895;DHT22;76753;45.642;13.758;2024-02-26T16:52:54;22.00;49.70
81895;DHT22;76753;45.642;13.758;2024-02-26T16:55:40;22.00;49.70
81895;DHT22;76753;45.642;13.758;2024-02-26T16:58:24;22.00;49.70
81895;DHT22;76753;45.642;13.758;2024-02-26T17:01:08;22.00;49.70
81895;DHT22;76753;45.642;13.758;2024-02-26T17:03:53;22.00;49.70
81895;DHT22;76753;45.642;13.758;2024-02-26T17:06:37;22.00;49.60
81895;DHT22;76753;45.642;13.758;2024-02-26T17:09:22;22.00;49.60
81895;DHT22;76753;45.642;13.758;2024-02-26T17:12:07;22.10;49.70